LFSF/MZM METAR and TAF weather

Enter ICAO airport designator
Station Type Date Time Source
LFSF METAR 2012/10/26 07:30 UTC NOAA

LFSF 260730Z AUTO 06008KT 360V090 //// // ///////// 10/08 Q1009


Station Type Date Time Source
LFSF Decoded METAR 2012/10/26 07:30 UTC NOAA

Metz / Frescaty, France (LFSF) 49-05N 006-08E 191M
Oct 26, 2012 - 03:30 AM EDT / 2012.10.26 0730 UTC
Wind: from the ENE (060 degrees) at 9 MPH (8 KT) (direction variable):0
Temperature: 50 F (10 C)
Dew Point: 46 F (8 C)
Relative Humidity: 87%
Pressure (altimeter): 29.80 in. Hg (1009 hPa)
ob: LFSF 260730Z AUTO 06008KT 360V090 //// // ///////// 10/08 Q1009
cycle: 7

Station Type Date Time Source
LFSF TAF UTC NOAA

Error!


Example: see airport list